This is the latest recevied weather packets stored in our database for station/object W3TMB. If no packets are shown the sender has not sent any weather packets the latest 10 day(s).
| Time | Temp. | Humidity | Pressure | Rain* | Wind** | Luminosity | Snow |
|---|---|---|---|---|---|---|---|
| 1777725721 | 7.22° C | 79% | 1013 hPa | 0 mm | - | 239 W/m² | - |
| 1777725420 | 6.67° C | 78% | 1013.1 hPa | 0 mm | - | 306 W/m² | - |
| 1777725116 | 7.78° C | 78% | 1013 hPa | 0 mm | - | 265 W/m² | - |
| 1777724813 | 7.22° C | 78% | 1013 hPa | 0 mm | - | 267 W/m² | - |
| 1777724510 | 6.67° C | 79% | 1013.4 hPa | 0 mm | - | 232 W/m² | - |
| 1777724208 | 6.67° C | 81% | 1013.4 hPa | 0 mm | - | 228 W/m² | - |
| 1777723905 | 6.67° C | 82% | 1013 hPa | 0 mm | - | 209 W/m² | - |
| 1777723601 | 6.67° C | 83% | 1012.9 hPa | 0 mm | - | 184 W/m² | - |
| 1777723299 | 6.11° C | 84% | 1013.1 hPa | 0 mm | - | 165 W/m² | - |
| 1777722996 | 5.56° C | 86% | 1013.3 hPa | 0 mm | - | 150 W/m² | - |
| 1777722692 | 6.11° C | 86% | 1012.9 hPa | 0 mm | - | 137 W/m² | - |
| 1777722388 | 5.56° C | 87% | 1013.1 hPa | 0 mm | - | 50 W/m² | - |
| 1777722086 | 5.56° C | 88% | 1013 hPa | 0 mm | - | 98 W/m² | - |
| 1777721783 | 5.56° C | 90% | 1013 hPa | 0 mm | - | 77 W/m² | - |
| 1777721481 | 5.56° C | 92% | 1013.1 hPa | 0 mm | - | 69 W/m² | - |
| 1777721179 | 5° C | 94% | 1013 hPa | 0 mm | - | 60 W/m² | - |
| 1777720876 | 4.44° C | 96% | 1013 hPa | 0 mm | - | 51 W/m² | - |
| 1777720574 | 4.44° C | 97% | 1013.1 hPa | 0 mm | - | 54 W/m² | - |
| 1777720271 | 4.44° C | 99% | 1012.8 hPa | 0 mm | - | 45 W/m² | - |
| 1777719969 | 3.89° C | 99% | 1012.9 hPa | 0 mm | - | 37 W/m² | - |
| 1777719666 | 3.89° C | 99% | 1012.9 hPa | 0 mm | - | 31 W/m² | - |
| 1777719363 | 3.89° C | 99% | 1012.9 hPa | 0 mm | - | 26 W/m² | - |
| 1777719060 | 3.33° C | 99% | 1012.7 hPa | 0 mm | - | 28 W/m² | - |
| 1777718757 | 2.78° C | 99% | 1013 hPa | 0 mm | - | 25 W/m² | - |
| 1777718455 | 2.78° C | 99% | 1013 hPa | 0 mm | - | 19 W/m² | - |
* Rain latest hour (hover to see other rain measurements)
** Current wind speed in m/s (hover to see current wind gust speed)